Time;durP1;ratioP1;P1;durP2;ratioP2;P2;SDS_P1;SDS_P2;PMS_P1;PMS_P2;Temp;Humidity;BMP_temperature;BMP_pressure;BME280_temperature;BME280_humidity;BME280_pressure;Samples;Min_cycle;Max_cycle;Signal;HPM_P1;HPM_P2
2023/06/10 00:02:17;;;;;;;65.43;9.98;;;;;;;;;;5003089;28;20026;-45
2023/06/10 00:04:44;;;;;;;55.03;10.02;;;;;;;;;;5001708;28;20026;-46
2023/06/10 00:07:11;;;;;;;58.67;10.40;;;;;;;;;;5002542;28;20038;-42
2023/06/10 00:09:39;;;;;;;65.60;10.02;;;;;;;;;;5002254;28;20030;-41
2023/06/10 00:12:06;;;;;;;67.20;10.63;;;;;;;;;;5007213;28;20042;-47
2023/06/10 00:14:42;;;;;;;57.33;9.48;;;;;;;;;;5010361;28;20047;-43
2023/06/10 00:17:09;;;;;;;56.55;8.85;;;;;;;;;;4986949;28;20058;-44
2023/06/10 00:19:41;;;;;;;51.75;8.40;;;;;;;;;;4984446;28;20393;-43
2023/06/10 00:22:10;;;;;;;55.25;9.15;;;;;;;;;;4991331;28;20045;-43
2023/06/10 00:24:37;;;;;;;49.60;8.85;;;;;;;;;;4990418;28;20038;-44
2023/06/10 00:27:05;;;;;;;51.35;9.70;;;;;;;;;;5006080;28;20043;-43
2023/06/10 00:29:32;;;;;;;52.67;9.55;;;;;;;;;;4985165;28;20046;-43
2023/06/10 00:31:59;;;;;;;56.58;9.40;;;;;;;;;;4972204;28;20477;-43
2023/06/10 00:34:26;;;;;;;57.45;9.43;;;;;;;;;;4972273;28;20035;-44
2023/06/10 00:36:53;;;;;;;50.08;8.43;;;;;;;;;;4970428;28;20511;-43
2023/06/10 00:39:20;;;;;;;59.17;8.25;;;;;;;;;;4972297;28;20478;-44
2023/06/10 00:41:47;;;;;;;50.22;9.05;;;;;;;;;;4971627;28;20125;-43
2023/06/10 00:44:14;;;;;;;46.58;9.70;;;;;;;;;;4970863;28;20054;-43
2023/06/10 00:46:41;;;;;;;49.85;8.90;;;;;;;;;;4970357;28;20034;-42
2023/06/10 00:49:09;;;;;;;39.35;8.60;;;;;;;;;;4971444;28;20019;-43
2023/06/10 00:51:36;;;;;;;43.65;8.52;;;;;;;;;;4971756;28;20045;-44
2023/06/10 00:54:03;;;;;;;45.05;8.95;;;;;;;;;;4972375;28;20039;-43
2023/06/10 00:56:31;;;;;;;39.60;8.52;;;;;;;;;;4971551;28;20027;-43
2023/06/10 00:58:58;;;;;;;43.58;9.25;;;;;;;;;;4970539;28;20054;-43
2023/06/10 01:01:26;;;;;;;38.47;8.85;;;;;;;;;;4972142;28;20030;-45
2023/06/10 01:03:53;;;;;;;53.65;11.60;;;;;;;;;;4971883;28;20079;-43
2023/06/10 01:06:37;;;;;;;62.17;14.63;;;;;;;;;;4971817;28;20034;-44
2023/06/10 01:09:22;;;;;;;56.22;15.88;;;;;;;;;;4973738;28;20026;-42
2023/06/10 01:11:56;;;;;;;82.05;18.48;;;;;;;;;;4977932;28;20089;-44
2023/06/10 01:14:24;;;;;;;68.78;16.85;;;;;;;;;;4991055;28;20038;-43
2023/06/10 01:16:52;;;;;;;77.07;17.20;;;;;;;;;;5005599;28;20798;-43
2023/06/10 01:19:19;;;;;;;67.85;17.35;;;;;;;;;;5003412;28;20469;-43
2023/06/10 01:21:48;;;;;;;74.07;16.90;;;;;;;;;;5003161;28;20038;-43
2023/06/10 01:24:18;;;;;;;68.05;15.50;;;;;;;;;;4995001;28;20481;-43
2023/06/10 01:26:46;;;;;;;57.97;15.02;;;;;;;;;;4993204;28;20053;-43
2023/06/10 01:29:20;;;;;;;66.05;17.17;;;;;;;;;;5002763;28;20061;-43
2023/06/10 01:31:52;;;;;;;70.22;17.02;;;;;;;;;;5010503;28;20045;-44
2023/06/10 01:34:19;;;;;;;59.38;15.60;;;;;;;;;;4997789;28;20045;-44
2023/06/10 01:36:48;;;;;;;62.47;16.90;;;;;;;;;;5010168;28;20116;-43
2023/06/10 01:39:19;;;;;;;60.97;15.85;;;;;;;;;;5010105;28;20029;-45
2023/06/10 01:41:46;;;;;;;69.00;16.30;;;;;;;;;;5012123;28;20018;-43
2023/06/10 01:44:13;;;;;;;56.08;15.80;;;;;;;;;;5014122;28;20034;-42
2023/06/10 01:46:40;;;;;;;53.35;14.82;;;;;;;;;;5013718;28;20030;-43
2023/06/10 01:49:07;;;;;;;53.05;14.07;;;;;;;;;;5013758;28;20030;-43
2023/06/10 01:51:34;;;;;;;53.55;13.68;;;;;;;;;;5010635;28;20069;-44
2023/06/10 01:54:01;;;;;;;54.22;14.40;;;;;;;;;;4999939;28;20472;-42
2023/06/10 01:56:28;;;;;;;64.28;14.10;;;;;;;;;;5013457;28;20036;-41
2023/06/10 01:58:58;;;;;;;59.00;13.82;;;;;;;;;;5012511;28;20507;-41
2023/06/10 02:01:26;;;;;;;51.42;12.70;;;;;;;;;;5011400;28;20109;-43
2023/06/10 02:03:53;;;;;;;55.85;12.40;;;;;;;;;;4992003;28;20130;-44
2023/06/10 02:06:20;;;;;;;48.33;12.73;;;;;;;;;;4996748;28;20577;-45
2023/06/10 02:08:48;;;;;;;43.97;10.70;;;;;;;;;;5009719;28;20157;-44
2023/06/10 02:11:15;;;;;;;52.72;12.18;;;;;;;;;;5007291;28;20046;-44
2023/06/10 02:13:42;;;;;;;37.90;10.63;;;;;;;;;;5006038;28;20500;-44
2023/06/10 02:16:12;;;;;;;40.22;10.88;;;;;;;;;;5003647;28;20059;-44
2023/06/10 02:18:42;;;;;;;51.88;11.30;;;;;;;;;;4999766;28;20042;-42
2023/06/10 02:21:10;;;;;;;47.90;10.43;;;;;;;;;;4996689;28;20122;-44
2023/06/10 02:23:37;;;;;;;35.47;10.00;;;;;;;;;;5012165;28;20033;-44
2023/06/10 02:26:04;;;;;;;44.38;10.90;;;;;;;;;;5011223;28;20076;-44
2023/06/10 02:28:31;;;;;;;38.58;9.82;;;;;;;;;;5012536;28;20038;-43
2023/06/10 02:30:59;;;;;;;35.42;9.40;;;;;;;;;;5010120;28;20180;-43
2023/06/10 02:33:27;;;;;;;36.30;10.18;;;;;;;;;;5010350;28;20037;-43
2023/06/10 02:35:54;;;;;;;38.38;9.57;;;;;;;;;;5011711;28;20041;-42
2023/06/10 02:38:21;;;;;;;35.83;8.95;;;;;;;;;;5012057;28;20022;-43
2023/06/10 02:40:48;;;;;;;33.00;8.98;;;;;;;;;;5011758;28;20377;-42
2023/06/10 02:43:15;;;;;;;33.50;9.07;;;;;;;;;;5010102;28;20053;-42
2023/06/10 02:45:42;;;;;;;28.25;8.48;;;;;;;;;;5009271;28;20041;-42
2023/06/10 02:48:10;;;;;;;39.22;9.15;;;;;;;;;;5010703;28;20061;-42
2023/06/10 02:50:38;;;;;;;37.55;8.05;;;;;;;;;;5011090;28;20042;-42
2023/06/10 02:53:05;;;;;;;37.22;8.18;;;;;;;;;;5010243;28;20061;-40
2023/06/10 02:55:33;;;;;;;31.20;8.10;;;;;;;;;;5011497;28;20038;-42
2023/06/10 02:58:00;;;;;;;31.38;7.28;;;;;;;;;;5010805;28;20056;-43
2023/06/10 03:00:28;;;;;;;32.08;8.13;;;;;;;;;;5011038;28;20033;-41
2023/06/10 03:02:57;;;;;;;38.90;8.82;;;;;;;;;;5011584;28;20726;-42
2023/06/10 03:05:24;;;;;;;35.03;8.38;;;;;;;;;;5008757;28;20506;-40
2023/06/10 03:07:51;;;;;;;30.77;8.02;;;;;;;;;;5010883;28;20026;-40
2023/06/10 03:10:18;;;;;;;27.95;7.50;;;;;;;;;;5010930;28;20038;-40
2023/06/10 03:12:46;;;;;;;26.85;7.57;;;;;;;;;;5008867;28;20053;-41
2023/06/10 03:15:14;;;;;;;23.73;6.78;;;;;;;;;;5009907;28;20026;-41
2023/06/10 03:17:41;;;;;;;25.45;7.55;;;;;;;;;;5011449;28;20030;-40
2023/06/10 03:20:10;;;;;;;29.38;7.55;;;;;;;;;;5011269;28;20033;-40
2023/06/10 03:22:38;;;;;;;29.95;7.20;;;;;;;;;;5011593;28;20042;-40
2023/06/10 03:25:05;;;;;;;25.75;6.60;;;;;;;;;;5011282;28;20037;-42
2023/06/10 03:27:33;;;;;;;18.00;6.15;;;;;;;;;;5009703;28;20542;-40
2023/06/10 03:30:00;;;;;;;24.58;7.10;;;;;;;;;;5011171;28;20029;-40
2023/06/10 03:32:27;;;;;;;25.17;6.20;;;;;;;;;;5010662;28;20076;-40
2023/06/10 03:34:57;;;;;;;22.50;6.70;;;;;;;;;;5010375;28;20030;-40
2023/06/10 03:37:24;;;;;;;24.45;6.60;;;;;;;;;;5010987;28;20046;-41
2023/06/10 03:39:53;;;;;;;24.17;6.15;;;;;;;;;;5008213;28;20064;-40
2023/06/10 03:42:21;;;;;;;22.05;6.63;;;;;;;;;;5010789;28;20851;-42
2023/06/10 03:44:48;;;;;;;21.13;5.93;;;;;;;;;;5011730;28;20026;-41
2023/06/10 03:47:15;;;;;;;25.45;6.93;;;;;;;;;;5011639;28;20026;-42
2023/06/10 03:49:43;;;;;;;20.30;5.90;;;;;;;;;;5011334;28;20099;-41
2023/06/10 03:52:10;;;;;;;24.25;5.85;;;;;;;;;;5011615;28;20030;-41
2023/06/10 03:54:37;;;;;;;23.20;5.75;;;;;;;;;;5007776;28;20124;-41
2023/06/10 03:57:05;;;;;;;21.10;6.25;;;;;;;;;;5008845;28;20018;-40
2023/06/10 03:59:32;;;;;;;17.17;6.07;;;;;;;;;;5010954;28;20045;-42
2023/06/10 04:02:00;;;;;;;21.02;5.47;;;;;;;;;;5011441;28;20057;-41
2023/06/10 04:04:27;;;;;;;13.85;4.85;;;;;;;;;;5011245;28;20132;-41
2023/06/10 04:06:54;;;;;;;17.15;5.38;;;;;;;;;;5011987;28;20022;-40
2023/06/10 04:09:21;;;;;;;18.27;4.90;;;;;;;;;;5011651;28;20041;-40
2023/06/10 04:11:49;;;;;;;17.95;4.68;;;;;;;;;;5011773;28;20087;-41
2023/06/10 04:14:16;;;;;;;18.17;4.97;;;;;;;;;;5011793;28;20034;-42
2023/06/10 04:16:43;;;;;;;12.75;4.57;;;;;;;;;;5011674;28;20140;-44
2023/06/10 04:19:10;;;;;;;12.98;4.38;;;;;;;;;;5011734;28;20076;-41
2023/06/10 04:21:37;;;;;;;14.95;4.70;;;;;;;;;;5011846;28;20168;-41
2023/06/10 04:24:05;;;;;;;18.52;5.10;;;;;;;;;;5011959;28;20097;-41
2023/06/10 04:26:32;;;;;;;14.90;4.97;;;;;;;;;;5011819;28;20373;-41
2023/06/10 04:28:59;;;;;;;11.50;4.38;;;;;;;;;;5010350;28;20745;-42
2023/06/10 04:31:26;;;;;;;13.60;4.63;;;;;;;;;;5011520;28;20041;-41
2023/06/10 04:33:54;;;;;;;10.80;3.92;;;;;;;;;;5011701;28;20037;-41
2023/06/10 04:36:21;;;;;;;12.75;4.07;;;;;;;;;;5011719;28;20038;-41
2023/06/10 04:38:49;;;;;;;12.48;4.40;;;;;;;;;;5011656;28;20026;-41
2023/06/10 04:41:16;;;;;;;12.35;4.65;;;;;;;;;;4992175;28;20046;-41
2023/06/10 04:43:43;;;;;;;16.70;4.75;;;;;;;;;;4991979;28;20084;-42
2023/06/10 04:46:11;;;;;;;11.75;4.32;;;;;;;;;;4991963;28;20030;-41
2023/06/10 04:48:38;;;;;;;12.82;4.13;;;;;;;;;;4991935;28;20033;-40
2023/06/10 04:51:05;;;;;;;10.52;4.38;;;;;;;;;;4991975;28;20038;-41
2023/06/10 04:53:32;;;;;;;12.40;3.97;;;;;;;;;;4992125;28;20456;-40
2023/06/10 04:55:59;;;;;;;9.77;3.92;;;;;;;;;;5001270;28;20033;-41
2023/06/10 04:58:27;;;;;;;10.88;3.65;;;;;;;;;;5011402;28;20026;-41
2023/06/10 05:00:54;;;;;;;12.13;3.78;;;;;;;;;;5011546;28;20028;-40
2023/06/10 05:03:21;;;;;;;11.13;3.67;;;;;;;;;;5011335;28;20084;-40
2023/06/10 05:05:48;;;;;;;10.52;3.95;;;;;;;;;;5011403;28;20431;-41
2023/06/10 05:08:15;;;;;;;9.82;3.60;;;;;;;;;;5011442;28;20064;-40
2023/06/10 05:10:42;;;;;;;10.27;3.70;;;;;;;;;;5020406;28;20044;-40
2023/06/10 05:13:09;;;;;;;7.25;3.08;;;;;;;;;;5012423;28;20069;-40
2023/06/10 05:15:37;;;;;;;9.18;3.50;;;;;;;;;;5012030;28;20499;-40
2023/06/10 05:18:04;;;;;;;7.47;3.15;;;;;;;;;;5015015;28;20030;-40
2023/06/10 05:20:31;;;;;;;8.63;3.30;;;;;;;;;;5015151;28;20029;-41
2023/06/10 05:22:58;;;;;;;8.68;3.25;;;;;;;;;;5015163;28;20049;-41
2023/06/10 05:25:27;;;;;;;6.88;2.83;;;;;;;;;;5009175;28;20034;-41
2023/06/10 05:27:54;;;;;;;8.38;2.80;;;;;;;;;;4995420;28;20131;-40
2023/06/10 05:30:21;;;;;;;8.73;3.33;;;;;;;;;;4995196;28;20026;-40
2023/06/10 05:32:49;;;;;;;8.80;2.88;;;;;;;;;;4995264;28;20039;-40
2023/06/10 05:35:16;;;;;;;7.55;3.35;;;;;;;;;;4995297;28;20034;-40
2023/06/10 05:37:43;;;;;;;7.13;2.95;;;;;;;;;;4995165;28;20029;-41
2023/06/10 05:40:10;;;;;;;10.18;3.00;;;;;;;;;;4995027;28;20481;-41
2023/06/10 05:42:37;;;;;;;8.00;3.30;;;;;;;;;;4995157;28;20457;-40
2023/06/10 05:45:04;;;;;;;7.18;2.83;;;;;;;;;;4995076;28;20397;-41
2023/06/10 05:47:31;;;;;;;6.05;2.83;;;;;;;;;;4995079;28;20417;-41
2023/06/10 05:49:58;;;;;;;8.85;3.10;;;;;;;;;;4994892;28;20039;-40
2023/06/10 05:52:25;;;;;;;6.35;2.90;;;;;;;;;;4994747;28;20042;-40
2023/06/10 05:54:54;;;;;;;6.25;2.40;;;;;;;;;;4994922;28;20485;-41
2023/06/10 05:57:21;;;;;;;6.95;2.30;;;;;;;;;;4993582;28;20441;-40
2023/06/10 05:59:48;;;;;;;5.60;2.63;;;;;;;;;;4994725;28;20077;-40
2023/06/10 06:02:15;;;;;;;5.75;2.60;;;;;;;;;;5006568;28;20034;-40
2023/06/10 06:04:42;;;;;;;5.85;2.40;;;;;;;;;;5014308;28;20396;-40
2023/06/10 06:07:09;;;;;;;6.85;2.90;;;;;;;;;;5014251;28;20349;-41
2023/06/10 06:09:36;;;;;;;6.35;2.53;;;;;;;;;;5014188;28;20034;-40
2023/06/10 06:12:03;;;;;;;5.72;2.53;;;;;;;;;;5002753;28;20050;-40
2023/06/10 06:14:30;;;;;;;5.53;2.30;;;;;;;;;;4994475;28;20556;-40
2023/06/10 06:16:57;;;;;;;7.38;2.65;;;;;;;;;;4994330;28;20042;-40
2023/06/10 06:19:24;;;;;;;7.60;2.67;;;;;;;;;;4994435;28;20496;-40
2023/06/10 06:21:51;;;;;;;6.60;2.25;;;;;;;;;;4994356;28;20037;-41
2023/06/10 06:24:18;;;;;;;6.00;2.42;;;;;;;;;;4994074;28;20088;-40
2023/06/10 06:26:45;;;;;;;5.60;2.40;;;;;;;;;;4993963;28;20571;-40
2023/06/10 06:29:12;;;;;;;5.47;2.20;;;;;;;;;;4994190;28;20026;-40
2023/06/10 06:31:39;;;;;;;4.47;2.10;;;;;;;;;;4994185;28;20038;-40
2023/06/10 06:34:06;;;;;;;6.22;2.30;;;;;;;;;;4994226;28;20042;-41
2023/06/10 06:36:33;;;;;;;5.07;1.95;;;;;;;;;;4994275;28;20362;-40
2023/06/10 06:39:00;;;;;;;5.95;2.40;;;;;;;;;;4992746;28;20038;-41
2023/06/10 06:41:28;;;;;;;5.45;1.95;;;;;;;;;;4994151;28;20501;-41
2023/06/10 06:43:55;;;;;;;3.38;1.70;;;;;;;;;;4992686;28;20522;-41
2023/06/10 06:46:22;;;;;;;5.38;2.20;;;;;;;;;;4993985;28;20126;-41
2023/06/10 06:48:49;;;;;;;3.35;1.88;;;;;;;;;;4993843;28;20085;-40
2023/06/10 06:51:16;;;;;;;5.65;2.00;;;;;;;;;;4993909;28;20591;-40
2023/06/10 06:53:46;;;;;;;4.72;1.70;;;;;;;;;;4993824;28;20030;-41
2023/06/10 06:56:13;;;;;;;5.38;2.10;;;;;;;;;;4993643;28;20030;-40
2023/06/10 06:58:40;;;;;;;5.28;1.70;;;;;;;;;;4992166;28;20409;-40
2023/06/10 07:01:08;;;;;;;5.80;1.90;;;;;;;;;;4993634;28;20129;-40
2023/06/10 07:03:35;;;;;;;4.00;1.80;;;;;;;;;;4993465;28;20034;-41
2023/06/10 07:06:02;;;;;;;4.13;1.80;;;;;;;;;;4993539;28;20554;-41
2023/06/10 07:08:29;;;;;;;4.20;1.85;;;;;;;;;;4993433;28;20047;-40
2023/06/10 07:10:56;;;;;;;3.33;1.67;;;;;;;;;;4993469;28;20492;-40
2023/06/10 07:13:23;;;;;;;5.40;2.00;;;;;;;;;;4993465;28;20081;-41
2023/06/10 07:15:50;;;;;;;4.88;1.70;;;;;;;;;;4993224;28;20117;-41
2023/06/10 07:18:17;;;;;;;3.63;1.85;;;;;;;;;;4993170;28;20071;-41
2023/06/10 07:20:44;;;;;;;3.47;1.70;;;;;;;;;;4993435;28;20493;-41
2023/06/10 07:23:11;;;;;;;4.35;1.70;;;;;;;;;;4993410;28;20031;-41
2023/06/10 07:25:38;;;;;;;4.70;1.70;;;;;;;;;;4992954;28;20093;-40
2023/06/10 07:28:05;;;;;;;3.70;1.27;;;;;;;;;;4993451;28;20429;-40
2023/06/10 07:30:32;;;;;;;4.68;2.03;;;;;;;;;;4993189;28;20035;-40
2023/06/10 07:32:59;;;;;;;2.63;1.52;;;;;;;;;;4993049;28;20034;-40
2023/06/10 07:35:26;;;;;;;3.83;1.48;;;;;;;;;;4992875;28;20049;-40
2023/06/10 07:37:53;;;;;;;5.18;1.48;;;;;;;;;;4992523;28;20026;-40
2023/06/10 07:40:20;;;;;;;3.63;1.73;;;;;;;;;;4992744;28;20023;-40
2023/06/10 07:42:47;;;;;;;3.15;1.25;;;;;;;;;;4992373;28;20033;-41
2023/06/10 07:45:14;;;;;;;4.85;1.35;;;;;;;;;;4992285;28;20109;-40
2023/06/10 07:47:41;;;;;;;3.38;1.60;;;;;;;;;;4992751;28;20026;-40
2023/06/10 07:50:08;;;;;;;2.15;1.10;;;;;;;;;;4992796;28;20023;-40
2023/06/10 07:52:35;;;;;;;2.53;1.38;;;;;;;;;;4992762;28;20038;-41
2023/06/10 07:55:02;;;;;;;3.38;1.40;;;;;;;;;;4992767;28;20027;-40
2023/06/10 07:57:31;;;;;;;2.85;1.20;;;;;;;;;;4992696;28;20109;-41
2023/06/10 08:00:00;;;;;;;3.47;1.33;;;;;;;;;;4992433;28;20038;-41
2023/06/10 08:02:26;;;;;;;4.60;1.50;;;;;;;;;;4992533;28;20037;-41
2023/06/10 08:04:53;;;;;;;5.32;1.38;;;;;;;;;;4992591;28;20396;-41
2023/06/10 08:07:21;;;;;;;1.85;1.08;;;;;;;;;;4992523;28;20404;-41
2023/06/10 08:09:48;;;;;;;2.30;0.90;;;;;;;;;;4992169;28;20088;-41
2023/06/10 08:12:15;;;;;;;4.00;1.10;;;;;;;;;;4991090;28;20030;-40
2023/06/10 08:14:42;;;;;;;2.65;1.27;;;;;;;;;;4992296;28;20030;-40
2023/06/10 08:17:10;;;;;;;2.45;1.15;;;;;;;;;;4992249;28;20058;-40
2023/06/10 08:19:37;;;;;;;3.05;1.05;;;;;;;;;;4992296;28;20389;-40
2023/06/10 08:22:04;;;;;;;4.43;1.10;;;;;;;;;;4992411;28;20515;-40
2023/06/10 08:24:31;;;;;;;4.13;1.10;;;;;;;;;;4992239;28;20034;-40
2023/06/10 08:26:58;;;;;;;2.13;0.85;;;;;;;;;;4992191;28;20097;-41
2023/06/10 08:29:26;;;;;;;1.40;0.85;;;;;;;;;;4991065;28;20023;-40
2023/06/10 08:31:53;;;;;;;2.40;0.82;;;;;;;;;;4992227;28;20500;-40
2023/06/10 08:34:20;;;;;;;2.35;0.80;;;;;;;;;;4992232;28;20035;-41
2023/06/10 08:36:47;;;;;;;1.77;1.05;;;;;;;;;;4992192;28;20030;-41
2023/06/10 08:39:14;;;;;;;1.67;0.80;;;;;;;;;;4992108;28;20022;-41
2023/06/10 08:41:44;;;;;;;2.22;0.88;;;;;;;;;;4992240;28;20477;-40
2023/06/10 08:44:28;;;;;;;3.38;0.95;;;;;;;;;;4992021;28;20511;-40
2023/06/10 08:46:57;;;;;;;1.98;0.82;;;;;;;;;;4992122;28;20045;-40
2023/06/10 08:49:25;;;;;;;1.77;0.80;;;;;;;;;;4992081;28;20034;-41
2023/06/10 08:51:56;;;;;;;2.03;0.90;;;;;;;;;;4996186;28;20500;-40
2023/06/10 08:54:26;;;;;;;3.00;0.80;;;;;;;;;;4996114;28;20026;-41
2023/06/10 08:56:55;;;;;;;1.08;0.60;;;;;;;;;;4996057;28;20023;-40
2023/06/10 08:59:22;;;;;;;1.77;0.70;;;;;;;;;;4995829;28;20392;-40
2023/06/10 09:01:49;;;;;;;1.20;0.70;;;;;;;;;;4995919;28;20503;-40
2023/06/10 09:04:17;;;;;;;1.30;0.80;;;;;;;;;;4995929;28;20515;-40
2023/06/10 09:06:45;;;;;;;1.17;0.60;;;;;;;;;;4995817;28;20035;-40
2023/06/10 09:09:13;;;;;;;0.93;0.60;;;;;;;;;;4995663;28;20019;-40
2023/06/10 09:11:40;;;;;;;1.65;0.80;;;;;;;;;;4995785;28;20086;-40
2023/06/10 09:14:07;;;;;;;1.70;0.70;;;;;;;;;;4995661;28;20084;-40
2023/06/10 09:16:35;;;;;;;1.88;0.75;;;;;;;;;;4994306;28;20042;-40
2023/06/10 09:19:07;;;;;;;1.38;0.60;;;;;;;;;;4995455;28;20026;-40
2023/06/10 09:21:38;;;;;;;1.30;0.63;;;;;;;;;;4995450;28;20034;-41
2023/06/10 09:24:06;;;;;;;0.90;0.60;;;;;;;;;;4995485;28;20388;-41
2023/06/10 09:26:33;;;;;;;1.42;0.80;;;;;;;;;;4995383;28;20050;-40
2023/06/10 09:29:10;;;;;;;1.13;0.63;;;;;;;;;;4995309;28;20033;-40
2023/06/10 09:31:37;;;;;;;1.02;0.65;;;;;;;;;;4994786;28;20256;-40
2023/06/10 09:34:11;;;;;;;1.33;0.80;;;;;;;;;;4995408;28;20559;-40
2023/06/10 09:36:38;;;;;;;1.45;0.40;;;;;;;;;;4995315;28;20544;-40
2023/06/10 09:39:05;;;;;;;1.13;0.60;;;;;;;;;;4995206;28;20044;-40
2023/06/10 09:41:36;;;;;;;1.25;0.60;;;;;;;;;;4995142;28;20030;-40
2023/06/10 09:44:10;;;;;;;0.95;0.60;;;;;;;;;;4995099;28;20026;-40
2023/06/10 09:46:37;;;;;;;0.98;0.60;;;;;;;;;;4995135;28;20037;-40
2023/06/10 09:49:04;;;;;;;2.65;0.60;;;;;;;;;;4995002;28;20041;-40
2023/06/10 09:51:31;;;;;;;1.15;0.60;;;;;;;;;;4994868;28;20496;-40
2023/06/10 09:53:58;;;;;;;2.05;0.45;;;;;;;;;;4994926;28;20093;-41
2023/06/10 09:56:34;;;;;;;1.73;0.75;;;;;;;;;;4994952;28;20034;-40
2023/06/10 09:59:01;;;;;;;0.95;0.50;;;;;;;;;;4994822;28;20492;-41
2023/06/10 10:01:28;;;;;;;0.98;0.50;;;;;;;;;;4992924;28;20547;-40
2023/06/10 10:03:55;;;;;;;1.58;0.60;;;;;;;;;;4994712;28;20022;-41
2023/06/10 10:06:22;;;;;;;1.40;0.60;;;;;;;;;;4994771;28;20026;-41
2023/06/10 10:08:50;;;;;;;0.90;0.50;;;;;;;;;;4994643;28;20377;-41
2023/06/10 10:11:18;;;;;;;2.22;0.60;;;;;;;;;;4994627;28;20041;-40
2023/06/10 10:13:49;;;;;;;1.40;0.50;;;;;;;;;;4994689;28;20030;-40
2023/06/10 10:16:17;;;;;;;1.20;0.43;;;;;;;;;;4994368;28;20050;-40
2023/06/10 10:18:47;;;;;;;1.30;0.65;;;;;;;;;;4994406;28;20081;-41
2023/06/10 10:21:14;;;;;;;1.33;0.50;;;;;;;;;;4994499;28;20029;-41
2023/06/10 10:23:54;;;;;;;2.08;0.82;;;;;;;;;;4994480;28;20019;-40
2023/06/10 10:26:22;;;;;;;1.02;0.50;;;;;;;;;;4994414;28;20022;-40
2023/06/10 10:29:04;;;;;;;0.70;0.50;;;;;;;;;;4994168;28;20034;-40
2023/06/10 10:31:33;;;;;;;1.67;0.52;;;;;;;;;;4994273;28;20033;-40
2023/06/10 10:34:00;;;;;;;0.98;0.50;;;;;;;;;;4994243;28;20562;-41
2023/06/10 10:36:28;;;;;;;1.38;0.50;;;;;;;;;;4994148;28;20027;-40
2023/06/10 10:38:55;;;;;;;1.33;0.50;;;;;;;;;;4994232;28;20177;-41
2023/06/10 10:41:23;;;;;;;0.70;0.50;;;;;;;;;;4994026;28;20034;-41
2023/06/10 10:43:51;;;;;;;0.93;0.50;;;;;;;;;;4993968;28;20027;-41
2023/06/10 10:46:18;;;;;;;1.45;0.55;;;;;;;;;;4994019;28;20031;-41
2023/06/10 10:48:45;;;;;;;1.23;0.50;;;;;;;;;;4992595;28;20048;-41
2023/06/10 10:51:12;;;;;;;2.05;0.50;;;;;;;;;;4993525;28;20694;-40
2023/06/10 10:53:40;;;;;;;0.90;0.50;;;;;;;;;;4992327;28;20041;-41
2023/06/10 10:56:08;;;;;;;2.83;0.60;;;;;;;;;;4993905;28;20038;-40
2023/06/10 10:58:36;;;;;;;3.53;0.60;;;;;;;;;;4993673;28;20022;-40
2023/06/10 11:01:13;;;;;;;0.75;0.40;;;;;;;;;;4993801;28;20578;-40
2023/06/10 11:03:49;;;;;;;1.73;0.68;;;;;;;;;;4993837;28;20023;-41
2023/06/10 11:06:17;;;;;;;1.05;0.55;;;;;;;;;;4993607;28;20019;-40
2023/06/10 11:08:44;;;;;;;0.88;0.43;;;;;;;;;;4993317;28;20081;-40
2023/06/10 11:11:21;;;;;;;2.10;0.50;;;;;;;;;;4993389;28;20049;-40
2023/06/10 11:14:09;;;;;;;0.55;0.40;;;;;;;;;;4992500;28;20038;-40
2023/06/10 11:16:41;;;;;;;2.45;0.57;;;;;;;;;;4988920;28;20537;-40
2023/06/10 11:19:08;;;;;;;3.58;0.70;;;;;;;;;;4988619;28;20034;-41
2023/06/10 11:21:59;;;;;;;2.90;0.60;;;;;;;;;;4973946;28;20033;-41
2023/06/10 11:24:26;;;;;;;3.33;0.70;;;;;;;;;;4973802;28;20031;-40
2023/06/10 11:26:54;;;;;;;3.83;0.65;;;;;;;;;;4973775;28;20129;-40
2023/06/10 11:29:21;;;;;;;5.25;0.73;;;;;;;;;;4973622;28;20520;-40
2023/06/10 11:31:51;;;;;;;3.45;0.50;;;;;;;;;;4973737;28;20035;-40
2023/06/10 11:34:26;;;;;;;1.73;0.57;;;;;;;;;;4972495;28;20031;-41
2023/06/10 11:36:53;;;;;;;6.63;0.77;;;;;;;;;;4973565;28;20050;-40
2023/06/10 11:39:23;;;;;;;6.15;0.77;;;;;;;;;;4988197;28;20791;-41
2023/06/10 11:41:51;;;;;;;4.30;1.00;;;;;;;;;;4973579;28;20023;-41
2023/06/10 11:44:18;;;;;;;5.15;1.00;;;;;;;;;;4988327;28;20086;-40
2023/06/10 11:46:45;;;;;;;9.60;0.93;;;;;;;;;;4973476;28;20027;-40
2023/06/10 11:49:13;;;;;;;4.38;0.77;;;;;;;;;;4973273;28;20123;-40
2023/06/10 11:51:43;;;;;;;5.20;1.05;;;;;;;;;;4973210;28;20453;-40
2023/06/10 11:54:11;;;;;;;9.07;1.10;;;;;;;;;;4973493;28;20380;-40
2023/06/10 11:56:37;;;;;;;5.50;1.02;;;;;;;;;;4973315;28;20441;-40
2023/06/10 11:59:06;;;;;;;6.57;1.15;;;;;;;;;;4973390;28;20397;-40
2023/06/10 12:01:36;;;;;;;4.65;0.90;;;;;;;;;;4988396;28;20080;-40
2023/06/10 12:04:06;;;;;;;8.25;1.00;;;;;;;;;;4992556;28;20391;-40
2023/06/10 12:06:39;;;;;;;10.18;1.20;;;;;;;;;;4992530;28;20027;-40
2023/06/10 12:09:07;;;;;;;10.13;0.95;;;;;;;;;;4992426;28;20019;-40
2023/06/10 12:11:36;;;;;;;8.40;1.00;;;;;;;;;;4992336;28;20113;-40
2023/06/10 12:14:03;;;;;;;13.20;1.10;;;;;;;;;;4992394;28;20034;-40
2023/06/10 12:16:31;;;;;;;6.45;1.30;;;;;;;;;;5004140;28;20476;-40
2023/06/10 12:19:02;;;;;;;10.70;1.27;;;;;;;;;;5004933;28;20432;-40
2023/06/10 12:21:30;;;;;;;8.02;1.30;;;;;;;;;;4992320;28;20464;-40
2023/06/10 12:24:03;;;;;;;9.95;1.42;;;;;;;;;;4990888;28;20054;-39
2023/06/10 12:26:40;;;;;;;9.27;1.13;;;;;;;;;;4992105;28;20050;-39
2023/06/10 12:29:33;;;;;;;5.30;0.95;;;;;;;;;;4995944;28;20034;-39
2023/06/10 12:32:05;;;;;;;7.60;0.73;;;;;;;;;;5006467;28;20064;-40
2023/06/10 12:34:33;;;;;;;17.00;1.40;;;;;;;;;;5010750;28;20034;-40
2023/06/10 12:37:01;;;;;;;7.35;0.95;;;;;;;;;;5011318;28;20025;-40
2023/06/10 12:39:28;;;;;;;9.23;1.20;;;;;;;;;;5010153;28;20080;-40
2023/06/10 12:41:55;;;;;;;7.88;0.80;;;;;;;;;;5011783;28;20033;-39
2023/06/10 12:44:31;;;;;;;7.03;1.10;;;;;;;;;;5010017;28;20064;-39
2023/06/10 12:46:58;;;;;;;6.95;0.85;;;;;;;;;;5011670;28;20018;-39
2023/06/10 12:49:26;;;;;;;5.00;1.08;;;;;;;;;;5011353;28;20018;-41
2023/06/10 12:51:53;;;;;;;7.63;1.38;;;;;;;;;;5010386;28;20061;-41
2023/06/10 12:54:20;;;;;;;11.90;1.58;;;;;;;;;;5010983;28;20026;-40
2023/06/10 12:56:47;;;;;;;19.80;1.92;;;;;;;;;;5010640;28;20061;-42
2023/06/10 12:59:14;;;;;;;14.07;1.95;;;;;;;;;;5010865;28;20018;-40
2023/06/10 13:01:41;;;;;;;9.75;1.77;;;;;;;;;;5001771;28;20080;-41
2023/06/10 13:04:08;;;;;;;9.70;1.65;;;;;;;;;;5000870;28;20134;-41
2023/06/10 13:06:38;;;;;;;26.77;2.03;;;;;;;;;;5006477;28;20032;-41
2023/06/10 13:09:06;;;;;;;20.02;1.65;;;;;;;;;;5009305;28;20496;-40
2023/06/10 13:11:33;;;;;;;14.98;1.92;;;;;;;;;;5009301;28;20046;-41
2023/06/10 13:14:00;;;;;;;15.55;2.20;;;;;;;;;;5006924;28;20037;-42
2023/06/10 13:16:27;;;;;;;13.73;1.60;;;;;;;;;;5005176;28;20385;-42
2023/06/10 13:18:55;;;;;;;12.48;2.00;;;;;;;;;;5010088;28;20112;-43
2023/06/10 13:21:22;;;;;;;19.40;2.10;;;;;;;;;;5006481;28;20084;-44
2023/06/10 13:23:50;;;;;;;17.52;1.92;;;;;;;;;;4992489;28;20480;-44
2023/06/10 13:26:17;;;;;;;33.15;2.75;;;;;;;;;;5008169;28;20037;-43
2023/06/10 13:28:44;;;;;;;24.48;2.45;;;;;;;;;;5010088;28;20038;-44
2023/06/10 13:31:11;;;;;;;26.10;3.13;;;;;;;;;;5005204;28;20113;-43
2023/06/10 13:33:38;;;;;;;38.65;3.00;;;;;;;;;;5010533;28;20034;-43
2023/06/10 13:36:06;;;;;;;32.63;2.83;;;;;;;;;;5009715;28;20029;-43
2023/06/10 13:38:33;;;;;;;22.50;2.30;;;;;;;;;;5013834;28;20041;-42
2023/06/10 13:41:01;;;;;;;33.15;2.90;;;;;;;;;;5011646;28;20030;-42
2023/06/10 13:43:28;;;;;;;40.08;3.55;;;;;;;;;;5014422;28;20033;-43
2023/06/10 13:45:56;;;;;;;28.25;3.20;;;;;;;;;;5011773;28;20038;-42
2023/06/10 13:48:23;;;;;;;24.52;2.78;;;;;;;;;;5013488;28;20499;-43
2023/06/10 13:50:50;;;;;;;32.25;4.07;;;;;;;;;;5010208;28;20525;-43
2023/06/10 13:53:17;;;;;;;38.25;3.58;;;;;;;;;;5012984;28;20042;-42
2023/06/10 13:55:44;;;;;;;43.70;4.15;;;;;;;;;;5007663;28;20026;-42
2023/06/10 13:58:11;;;;;;;71.38;4.97;;;;;;;;;;5013682;28;20399;-43
2023/06/10 14:00:38;;;;;;;45.42;3.75;;;;;;;;;;5012011;28;20096;-43
2023/06/10 14:03:05;;;;;;;61.38;4.63;;;;;;;;;;5012041;28;20096;-42
2023/06/10 14:05:33;;;;;;;50.42;4.55;;;;;;;;;;5011556;28;20460;-42
2023/06/10 14:08:00;;;;;;;66.65;5.50;;;;;;;;;;5012485;28;20042;-43
2023/06/10 14:10:27;;;;;;;47.70;4.82;;;;;;;;;;5011075;28;20061;-43
2023/06/10 14:12:54;;;;;;;57.38;4.50;;;;;;;;;;5012539;28;20110;-43
2023/06/10 14:15:21;;;;;;;42.50;4.28;;;;;;;;;;5011682;28;20030;-44
2023/06/10 14:17:48;;;;;;;59.03;5.95;;;;;;;;;;5013336;28;20412;-44
2023/06/10 14:20:15;;;;;;;60.28;5.53;;;;;;;;;;5011939;28;20041;-46
2023/06/10 14:22:42;;;;;;;51.15;4.75;;;;;;;;;;5012091;28;20381;-44
2023/06/10 14:25:11;;;;;;;59.40;4.90;;;;;;;;;;5012034;28;20025;-43
2023/06/10 14:27:38;;;;;;;55.10;5.25;;;;;;;;;;5013036;28;20034;-43
2023/06/10 14:30:05;;;;;;;49.40;4.93;;;;;;;;;;5011553;28;20040;-40
2023/06/10 14:32:32;;;;;;;49.45;5.20;;;;;;;;;;5011525;28;20269;-41
2023/06/10 14:34:59;;;;;;;42.10;4.80;;;;;;;;;;5012911;28;20041;-40
2023/06/10 14:37:27;;;;;;;38.55;5.25;;;;;;;;;;5008830;28;20037;-41
2023/06/10 14:39:54;;;;;;;44.55;4.55;;;;;;;;;;5013948;28;20439;-42
2023/06/10 14:42:21;;;;;;;58.42;4.78;;;;;;;;;;4993247;28;20460;-42